Time;durP1;ratioP1;P1;durP2;ratioP2;P2;SDS_P1;SDS_P2;PMS_P1;PMS_P2;Temp;Humidity;BMP_temperature;BMP_pressure;BME280_temperature;BME280_humidity;BME280_pressure;Samples;Min_cycle;Max_cycle;Signal;HPM_P1;HPM_P2
2021/05/28 00:02:20;;;;;;;16.30;7.70;;;9.30;99.90;;;;;;5259311;27;20111;-61
2021/05/28 00:04:49;;;;;;;14.30;8.03;;;9.20;99.90;;;;;;5260866;27;20129;-62
2021/05/28 00:07:15;;;;;;;9.93;7.40;;;9.20;99.90;;;;;;5262194;27;20466;-62
2021/05/28 00:09:45;;;;;;;13.60;6.97;;;9.20;99.90;;;;;;5260441;27;20118;-61
2021/05/28 00:12:11;;;;;;;13.93;8.07;;;9.10;99.90;;;;;;5260379;27;20151;-61
2021/05/28 00:14:38;;;;;;;12.47;7.53;;;9.10;99.90;;;;;;5260320;27;20143;-61
2021/05/28 00:17:04;;;;;;;15.50;7.73;;;9.10;99.90;;;;;;5261783;27;20176;-63
2021/05/28 00:19:31;;;;;;;9.93;7.40;;;9.10;99.90;;;;;;5258526;27;20135;-62
2021/05/28 00:22:13;;;;;;;13.87;7.40;;;9.10;99.90;;;;;;5257197;27;20131;-63
2021/05/28 00:24:51;;;;;;;11.67;7.87;;;9.10;99.90;;;;;;5191098;27;20167;-58
2021/05/28 00:27:18;;;;;;;11.97;8.27;;;9.10;99.90;;;;;;5192039;27;20132;-63
2021/05/28 00:29:46;;;;;;;13.97;8.93;;;9.10;99.90;;;;;;5193460;27;20441;-62
2021/05/28 00:32:12;;;;;;;12.20;8.30;;;9.00;99.90;;;;;;5192812;27;20452;-61
2021/05/28 00:34:38;;;;;;;18.33;8.90;;;9.00;99.90;;;;;;5192351;27;20131;-60
2021/05/28 00:37:07;;;;;;;14.00;7.93;;;9.00;99.90;;;;;;5192985;27;20127;-60
2021/05/28 00:39:35;;;;;;;11.83;8.67;;;8.90;99.90;;;;;;5193281;27;20592;-62
2021/05/28 00:42:01;;;;;;;12.73;7.57;;;8.90;99.90;;;;;;5193163;27;20509;-61
2021/05/28 00:44:28;;;;;;;11.77;7.47;;;8.90;99.90;;;;;;5191978;27;20151;-62
2021/05/28 00:46:55;;;;;;;14.63;8.83;;;8.90;99.90;;;;;;5192713;27;20141;-61
2021/05/28 00:49:21;;;;;;;11.67;7.97;;;8.90;99.90;;;;;;5193239;27;20197;-60
2021/05/28 00:51:48;;;;;;;12.70;8.10;;;8.90;99.90;;;;;;5192818;27;20108;-61
2021/05/28 00:54:14;;;;;;;11.70;7.77;;;8.80;99.90;;;;;;5195604;27;20128;-63
2021/05/28 00:56:45;;;;;;;12.37;8.07;;;8.80;99.90;;;;;;5262110;27;20156;-61
2021/05/28 00:59:13;;;;;;;13.53;8.23;;;8.80;99.90;;;;;;5262367;27;20108;-63
2021/05/28 01:01:39;;;;;;;16.70;7.97;;;8.80;99.90;;;;;;5261596;27;20138;-63
2021/05/28 01:04:07;;;;;;;18.50;8.47;;;8.70;99.90;;;;;;5262169;27;20142;-62
2021/05/28 01:06:36;;;;;;;13.67;8.10;;;8.70;99.90;;;;;;5261712;27;20106;-61
2021/05/28 01:09:06;;;;;;;14.83;8.43;;;8.70;99.90;;;;;;5261840;27;20118;-64
2021/05/28 01:11:33;;;;;;;10.27;7.63;;;8.70;99.90;;;;;;5261155;27;20118;-62
2021/05/28 01:14:01;;;;;;;11.67;8.17;;;8.70;99.90;;;;;;5261294;27;20189;-61
2021/05/28 01:16:30;;;;;;;15.80;8.83;;;8.60;99.90;;;;;;5262715;27;20123;-62
2021/05/28 01:18:57;;;;;;;16.10;8.40;;;8.60;99.90;;;;;;5262310;27;20123;-62
2021/05/28 01:21:25;;;;;;;11.23;8.00;;;8.60;99.90;;;;;;5262686;27;20108;-61
2021/05/28 01:23:53;;;;;;;12.27;7.83;;;8.60;99.90;;;;;;5262780;27;20136;-61
2021/05/28 01:26:19;;;;;;;12.03;8.67;;;8.50;99.90;;;;;;5261734;27;20138;-61
2021/05/28 01:28:46;;;;;;;14.80;8.70;;;8.50;99.90;;;;;;5261239;27;20108;-61
2021/05/28 01:31:13;;;;;;;11.00;7.73;;;8.50;99.90;;;;;;5261894;27;20578;-62
2021/05/28 01:33:40;;;;;;;10.73;8.40;;;8.50;99.90;;;;;;5261262;27;20140;-63
2021/05/28 01:36:08;;;;;;;11.57;7.97;;;8.40;99.90;;;;;;5261311;27;20110;-62
2021/05/28 01:38:34;;;;;;;13.67;8.13;;;8.40;99.90;;;;;;5261231;27;20113;-61
2021/05/28 01:41:05;;;;;;;11.57;8.30;;;8.40;99.90;;;;;;5261659;27;20103;-64
2021/05/28 01:43:32;;;;;;;14.00;8.17;;;8.40;99.90;;;;;;5261563;27;20463;-62
2021/05/28 01:45:58;;;;;;;18.13;8.70;;;8.30;99.90;;;;;;5261882;27;20115;-60
2021/05/28 01:48:25;;;;;;;12.83;8.47;;;8.30;99.90;;;;;;5261490;27;20115;-60
2021/05/28 01:50:52;;;;;;;11.77;7.67;;;8.30;99.90;;;;;;5260921;27;20189;-61
2021/05/28 01:53:19;;;;;;;16.77;8.97;;;8.30;99.90;;;;;;5262680;27;20117;-62
2021/05/28 01:55:49;;;;;;;12.57;8.70;;;8.30;99.90;;;;;;5260765;27;20123;-60
2021/05/28 01:58:18;;;;;;;13.47;7.80;;;8.30;99.90;;;;;;5261323;27;20107;-60
2021/05/28 02:00:46;;;;;;;14.73;9.00;;;8.30;99.90;;;;;;5259963;27;20139;-62
2021/05/28 02:03:14;;;;;;;13.40;8.40;;;8.20;99.90;;;;;;5261419;27;20184;-60
2021/05/28 02:05:40;;;;;;;13.10;8.80;;;8.20;99.90;;;;;;5261428;27;20134;-62
2021/05/28 02:08:10;;;;;;;16.67;9.07;;;8.20;99.90;;;;;;5261412;27;20108;-61
2021/05/28 02:10:36;;;;;;;15.97;9.63;;;8.20;99.90;;;;;;5260927;27;20132;-62
2021/05/28 02:13:03;;;;;;;10.20;7.73;;;8.20;99.90;;;;;;5262348;27;20107;-63
2021/05/28 02:15:31;;;;;;;11.50;8.23;;;8.10;99.90;;;;;;5261175;27;20150;-61
2021/05/28 02:17:57;;;;;;;12.77;8.03;;;8.10;99.90;;;;;;5260855;27;20131;-61
2021/05/28 02:20:24;;;;;;;14.70;9.17;;;8.10;99.90;;;;;;5261321;27;20107;-62
2021/05/28 02:22:51;;;;;;;13.90;8.40;;;8.10;99.90;;;;;;5261045;27;20132;-64
2021/05/28 02:25:18;;;;;;;12.33;8.47;;;8.10;99.90;;;;;;5260671;27;20162;-61
2021/05/28 02:27:46;;;;;;;12.27;8.23;;;8.00;99.90;;;;;;5262344;27;20138;-60
2021/05/28 02:30:15;;;;;;;10.37;8.37;;;8.00;99.90;;;;;;5260870;27;20461;-60
2021/05/28 02:32:42;;;;;;;13.83;7.97;;;8.00;99.90;;;;;;5261024;27;20107;-60
2021/05/28 02:35:10;;;;;;;16.83;9.07;;;7.90;99.90;;;;;;5261281;27;20108;-61
2021/05/28 02:37:37;;;;;;;13.43;8.40;;;8.00;99.90;;;;;;5261192;27;20162;-63
2021/05/28 02:40:05;;;;;;;14.10;8.33;;;7.90;99.90;;;;;;5260941;27;20115;-62
2021/05/28 02:42:31;;;;;;;13.60;9.10;;;7.90;99.90;;;;;;5260338;27;20130;-61
2021/05/28 02:44:58;;;;;;;13.00;8.27;;;7.90;99.90;;;;;;5261112;27;20520;-62
2021/05/28 02:47:25;;;;;;;12.67;7.93;;;7.90;99.90;;;;;;5260787;27;20131;-62
2021/05/28 02:49:52;;;;;;;13.13;7.87;;;7.80;99.90;;;;;;5262675;27;20126;-62
2021/05/28 02:52:18;;;;;;;9.80;7.90;;;7.80;99.90;;;;;;5261103;27;20163;-60
2021/05/28 02:54:45;;;;;;;10.77;7.50;;;7.80;99.90;;;;;;5261106;27;20126;-60
2021/05/28 02:57:12;;;;;;;17.80;8.37;;;7.70;99.90;;;;;;5260843;27;20115;-61
2021/05/28 02:59:39;;;;;;;17.67;8.30;;;7.70;99.90;;;;;;5260774;27;20104;-61
2021/05/28 03:02:06;;;;;;;14.67;8.73;;;7.70;99.90;;;;;;5261330;27;20583;-61
2021/05/28 03:04:35;;;;;;;9.60;7.30;;;7.60;99.90;;;;;;5260680;27;20431;-62
2021/05/28 03:07:03;;;;;;;10.50;7.53;;;7.60;99.90;;;;;;5262934;27;20435;-61
2021/05/28 03:09:29;;;;;;;12.33;7.83;;;7.60;99.90;;;;;;5260772;27;20107;-60
2021/05/28 03:11:56;;;;;;;12.77;7.83;;;7.60;99.90;;;;;;5260534;27;20108;-63
2021/05/28 03:14:22;;;;;;;10.63;7.50;;;7.60;99.90;;;;;;5260950;27;20108;-62
2021/05/28 03:16:48;;;;;;;12.23;7.53;;;7.60;99.90;;;;;;5260705;27;20174;-62
2021/05/28 03:19:20;;;;;;;11.93;7.67;;;7.50;99.90;;;;;;5260843;27;20107;-62
2021/05/28 03:24:32;;;;;;;10.30;7.47;;;7.50;99.90;;;;;;5260404;27;20604;-62
2021/05/28 03:26:58;;;;;;;10.00;6.97;;;7.40;99.90;;;;;;5260477;27;20121;-60
2021/05/28 03:29:25;;;;;;;11.73;7.70;;;7.40;99.90;;;;;;5260800;27;20107;-61
2021/05/28 03:31:55;;;;;;;10.40;8.00;;;7.40;99.90;;;;;;5261103;27;20115;-60
2021/05/28 03:34:25;;;;;;;12.90;8.03;;;7.50;99.90;;;;;;5260858;27;20146;-61
2021/05/28 03:36:51;;;;;;;11.47;7.90;;;7.40;99.90;;;;;;5261451;27;20172;-61
2021/05/28 03:39:21;;;;;;;9.23;7.20;;;7.40;99.90;;;;;;5257647;27;20135;-60
2021/05/28 03:41:54;;;;;;;12.10;7.83;;;7.40;99.90;;;;;;5258708;27;20112;-62
2021/05/28 03:44:21;;;;;;;11.07;7.47;;;7.40;99.90;;;;;;5257717;27;20547;-63
2021/05/28 03:46:47;;;;;;;10.13;8.33;;;7.50;99.90;;;;;;5260168;27;20115;-61
2021/05/28 03:49:17;;;;;;;12.00;7.80;;;7.40;99.90;;;;;;5258677;27;20103;-61
2021/05/28 03:51:46;;;;;;;12.00;7.40;;;7.50;99.90;;;;;;5259518;27;20485;-61
2021/05/28 03:54:13;;;;;;;14.33;7.70;;;7.50;99.90;;;;;;5260595;27;20123;-63
2021/05/28 03:56:39;;;;;;;14.67;8.00;;;7.50;99.90;;;;;;5260356;27;20393;-63
2021/05/28 03:59:07;;;;;;;13.70;8.23;;;7.50;99.90;;;;;;5260557;27;20114;-63
2021/05/28 04:01:34;;;;;;;10.10;7.43;;;7.50;99.90;;;;;;5260927;27;20622;-62
2021/05/28 04:04:00;;;;;;;10.97;7.70;;;7.50;99.90;;;;;;5260785;27;20458;-60
2021/05/28 04:06:26;;;;;;;9.93;7.40;;;7.50;99.90;;;;;;5260396;27;20149;-61
2021/05/28 04:08:53;;;;;;;12.03;7.50;;;7.50;99.90;;;;;;5260462;27;20115;-60
2021/05/28 04:11:19;;;;;;;13.07;8.30;;;7.50;99.90;;;;;;5261125;27;20284;-61
2021/05/28 04:13:46;;;;;;;11.40;8.10;;;7.60;99.90;;;;;;5261125;27;20118;-61
2021/05/28 04:16:13;;;;;;;16.33;8.80;;;7.60;99.90;;;;;;5261134;27;20167;-59
2021/05/28 04:18:39;;;;;;;12.60;8.37;;;7.60;99.90;;;;;;5260417;27;20138;-60
2021/05/28 04:21:06;;;;;;;9.70;7.10;;;7.70;99.90;;;;;;5260488;27;21139;-62
2021/05/28 04:23:34;;;;;;;10.93;7.50;;;7.70;99.90;;;;;;5261463;27;20539;-62
2021/05/28 04:26:00;;;;;;;10.13;7.70;;;7.80;99.90;;;;;;5260777;27;20181;-61
2021/05/28 04:28:28;;;;;;;10.80;7.53;;;7.90;99.90;;;;;;5260260;27;20181;-60
2021/05/28 04:30:54;;;;;;;9.20;7.07;;;7.90;99.90;;;;;;5260354;27;20108;-59
2021/05/28 04:33:22;;;;;;;14.80;7.80;;;8.00;99.90;;;;;;5260606;27;20128;-60
2021/05/28 04:35:48;;;;;;;11.77;7.40;;;8.10;99.90;;;;;;5260297;27;20146;-62
2021/05/28 04:38:15;;;;;;;11.57;7.40;;;8.20;99.90;;;;;;5260621;27;20138;-61
2021/05/28 04:40:41;;;;;;;10.20;8.00;;;8.40;99.90;;;;;;5260663;27;20159;-62
2021/05/28 04:43:08;;;;;;;9.13;6.67;;;8.60;99.90;;;;;;5261684;27;20103;-60
2021/05/28 04:45:34;;;;;;;12.57;6.33;;;9.80;99.90;;;;;;5260446;27;20139;-60
2021/05/28 04:48:01;;;;;;;9.30;6.27;;;10.30;99.90;;;;;;5259765;27;20153;-62
2021/05/28 04:50:31;;;;;;;10.47;6.07;;;10.30;99.90;;;;;;5260205;27;20107;-62
2021/05/28 04:52:58;;;;;;;10.37;5.43;;;10.20;99.90;;;;;;5260177;27;20108;-61
2021/05/28 04:55:25;;;;;;;11.33;6.20;;;10.00;99.90;;;;;;5260433;27;20172;-59
2021/05/28 04:57:52;;;;;;;8.97;6.03;;;9.80;99.90;;;;;;5260350;27;20110;-59
2021/05/28 05:00:19;;;;;;;7.13;6.40;;;9.80;99.90;;;;;;5260012;27;20160;-60
2021/05/28 05:02:47;;;;;;;9.63;6.13;;;9.90;99.90;;;;;;5259751;27;20124;-61
2021/05/28 05:05:15;;;;;;;6.67;5.73;;;10.50;99.90;;;;;;5262295;27;20120;-60
2021/05/28 05:07:44;;;;;;;9.73;7.03;;;10.90;99.90;;;;;;5260267;27;20137;-61
2021/05/28 05:10:11;;;;;;;11.27;7.13;;;11.00;99.90;;;;;;5260034;27;20500;-60
2021/05/28 05:12:40;;;;;;;13.73;7.17;;;10.90;99.90;;;;;;5261620;27;20108;-61
2021/05/28 05:15:08;;;;;;;14.87;8.67;;;10.90;99.90;;;;;;5262192;27;20108;-60
2021/05/28 05:17:34;;;;;;;11.27;9.43;;;11.20;99.90;;;;;;5260076;27;20126;-63
2021/05/28 05:20:01;;;;;;;9.53;8.50;;;13.10;99.90;;;;;;5260464;27;20514;-68
2021/05/28 05:22:31;;;;;;;12.20;7.90;;;15.70;99.90;;;;;;5260473;27;20112;-61
2021/05/28 05:25:00;;;;;;;11.37;9.13;;;16.80;99.90;;;;;;5259836;27;20166;-64
2021/05/28 05:27:26;;;;;;;10.37;8.00;;;16.50;99.90;;;;;;5260705;27;20118;-63
2021/05/28 05:29:53;;;;;;;13.60;8.20;;;16.40;99.90;;;;;;5260600;27;20153;-62
2021/05/28 05:32:19;;;;;;;11.77;7.53;;;16.60;99.90;;;;;;5260653;27;20238;-63
2021/05/28 05:34:45;;;;;;;10.17;7.63;;;16.60;99.90;;;;;;5259966;27;20136;-64
2021/05/28 05:37:12;;;;;;;10.03;7.10;;;16.40;99.90;;;;;;5261043;27;20130;-64
2021/05/28 05:39:44;;;;;;;8.13;6.60;;;16.40;99.90;;;;;;5259949;27;20123;-63
2021/05/28 05:42:11;;;;;;;11.60;7.20;;;16.20;99.90;;;;;;5261459;27;20511;-63
2021/05/28 05:44:38;;;;;;;9.80;6.57;;;15.90;99.90;;;;;;5261603;27;20107;-62
2021/05/28 05:47:04;;;;;;;8.53;6.07;;;15.70;99.90;;;;;;5261421;27;20424;-63
2021/05/28 05:49:30;;;;;;;10.80;6.93;;;15.90;99.90;;;;;;5262907;27;20762;-65
2021/05/28 05:51:57;;;;;;;10.60;6.13;;;16.00;99.90;;;;;;5261286;27;20116;-61
2021/05/28 05:54:23;;;;;;;10.03;5.83;;;16.20;99.90;;;;;;5262435;27;20550;-63
2021/05/28 05:56:50;;;;;;;7.47;5.27;;;16.90;99.90;;;;;;5263500;27;20158;-63
2021/05/28 05:59:17;;;;;;;11.17;5.67;;;17.20;98.10;;;;;;5261783;27;20111;-64
2021/05/28 06:01:44;;;;;;;7.13;5.10;;;16.80;98.40;;;;;;5261503;27;20137;-63
2021/05/28 06:04:10;;;;;;;6.70;4.97;;;16.50;99.30;;;;;;5261434;27;20135;-63
2021/05/28 06:06:36;;;;;;;9.63;5.20;;;16.50;98.50;;;;;;5261437;27;20106;-61
2021/05/28 06:09:06;;;;;;;9.03;4.43;;;16.20;99.10;;;;;;5261064;27;20118;-63
2021/05/28 06:11:35;;;;;;;10.67;4.80;;;15.80;99.90;;;;;;5261264;27;20149;-62
2021/05/28 06:14:01;;;;;;;9.70;4.90;;;15.40;99.90;;;;;;5261520;27;20107;-62
2021/05/28 06:16:28;;;;;;;8.13;4.90;;;15.00;99.90;;;;;;5261426;27;20125;-61
2021/05/28 06:18:55;;;;;;;9.80;5.00;;;14.70;99.90;;;;;;5263223;27;20111;-63
2021/05/28 06:21:21;;;;;;;11.10;4.80;;;14.70;99.90;;;;;;5261294;27;20119;-60
2021/05/28 06:23:47;;;;;;;8.17;5.10;;;14.40;99.90;;;;;;5261429;27;20110;-61
2021/05/28 06:26:14;;;;;;;9.07;5.03;;;14.50;99.90;;;;;;5260760;27;20147;-61
2021/05/28 06:28:40;;;;;;;8.73;5.47;;;14.60;99.90;;;;;;5261238;27;20159;-60
2021/05/28 06:31:09;;;;;;;9.00;4.97;;;14.60;99.90;;;;;;5261134;27;20125;-63
2021/05/28 06:33:39;;;;;;;7.93;4.83;;;14.40;99.90;;;;;;5262805;27;20107;-62
2021/05/28 06:36:08;;;;;;;11.47;5.57;;;14.20;99.90;;;;;;5261316;27;20108;-63
2021/05/28 06:38:35;;;;;;;7.47;4.50;;;14.10;99.90;;;;;;5261357;27;20549;-63
2021/05/28 06:41:02;;;;;;;12.27;5.43;;;14.00;99.90;;;;;;5261229;27;20118;-62
2021/05/28 06:43:28;;;;;;;10.23;5.00;;;14.20;99.90;;;;;;5260984;27;20123;-61
2021/05/28 06:45:55;;;;;;;6.10;4.03;;;14.50;99.90;;;;;;5262878;27;20141;-63
2021/05/28 06:48:21;;;;;;;8.90;5.03;;;14.70;99.90;;;;;;5261221;27;20562;-64
2021/05/28 06:50:48;;;;;;;6.97;3.70;;;14.90;99.90;;;;;;5263091;27;20122;-63
2021/05/28 06:53:15;;;;;;;9.27;4.60;;;14.80;99.90;;;;;;5262124;27;20168;-63
2021/05/28 06:55:42;;;;;;;5.13;3.60;;;14.90;99.90;;;;;;5260709;27;20178;-61
2021/05/28 06:58:08;;;;;;;8.87;4.50;;;14.90;99.90;;;;;;5261108;27;20554;-61
2021/05/28 07:00:35;;;;;;;8.23;3.97;;;15.20;99.90;;;;;;5260549;27;20103;-64
2021/05/28 07:03:01;;;;;;;8.00;4.20;;;14.90;99.90;;;;;;5260831;27;20130;-61
2021/05/28 07:05:29;;;;;;;12.00;4.77;;;14.80;99.90;;;;;;5261100;27;20107;-62
2021/05/28 07:07:57;;;;;;;9.87;4.97;;;14.80;99.90;;;;;;5260843;27;20141;-62
2021/05/28 07:10:23;;;;;;;8.10;4.10;;;15.00;99.90;;;;;;5261106;27;20127;-62
2021/05/28 07:12:50;;;;;;;6.33;4.37;;;15.80;99.90;;;;;;5261015;27;20204;-60
2021/05/28 07:15:26;;;;;;;6.07;4.00;;;16.60;99.90;;;;;;5260825;27;20153;-59
2021/05/28 07:17:52;;;;;;;7.50;4.00;;;16.80;99.90;;;;;;5260894;27;20108;-61
2021/05/28 07:20:19;;;;;;;9.07;3.87;;;17.50;97.80;;;;;;5261036;27;20149;-62
2021/05/28 07:22:45;;;;;;;6.87;3.47;;;18.30;96.80;;;;;;5261953;27;20477;-60
2021/05/28 07:25:17;;;;;;;10.03;3.30;;;19.50;94.50;;;;;;5260217;27;20149;-61
2021/05/28 07:27:44;;;;;;;7.10;3.90;;;20.30;92.50;;;;;;5260842;27;20107;-61
2021/05/28 07:30:13;;;;;;;4.50;3.03;;;20.50;92.20;;;;;;5260803;27;20122;-63
2021/05/28 07:32:40;;;;;;;6.73;3.33;;;21.50;90.10;;;;;;5262191;27;20574;-62
2021/05/28 07:35:10;;;;;;;5.53;3.50;;;23.50;81.60;;;;;;5260234;27;20123;-63
2021/05/28 07:37:37;;;;;;;5.47;3.20;;;25.10;75.70;;;;;;5260864;27;20107;-61
2021/05/28 07:40:04;;;;;;;8.37;3.73;;;26.60;69.20;;;;;;5260847;27;20111;-62
2021/05/28 07:42:31;;;;;;;4.43;2.67;;;27.70;60.40;;;;;;5260576;27;20132;-61
2021/05/28 07:44:58;;;;;;;7.27;3.07;;;28.20;62.30;;;;;;5262470;27;20383;-62
2021/05/28 07:47:25;;;;;;;6.60;2.97;;;29.10;57.60;;;;;;5260776;27;20123;-60
2021/05/28 07:49:51;;;;;;;5.00;2.87;;;34.20;49.00;;;;;;5261643;27;20107;-62
2021/05/28 07:52:17;;;;;;;4.95;2.37;;;39.70;37.50;;;;;;5260515;27;20107;-62
2021/05/28 07:54:44;;;;;;;12.50;2.65;;;43.90;33.90;;;;;;5262684;27;20554;-62
2021/05/28 07:57:10;;;;;;;2.33;1.80;;;46.80;30.50;;;;;;5263046;27;20135;-63
2021/05/28 07:59:37;;;;;;;3.60;2.58;;;48.70;29.20;;;;;;5263196;27;20104;-64
2021/05/28 08:02:04;;;;;;;3.95;2.00;;;49.40;27.90;;;;;;5260838;27;20107;-62
2021/05/28 08:04:38;;;;;;;3.17;1.98;;;49.30;28.10;;;;;;5261215;27;20138;-63
2021/05/28 08:07:07;;;;;;;5.07;2.10;;;49.50;28.00;;;;;;5262505;27;20446;-64
2021/05/28 08:09:36;;;;;;;4.78;1.87;;;50.00;27.40;;;;;;5260478;27;20425;-62
2021/05/28 08:12:05;;;;;;;4.50;2.05;;;50.60;27.40;;;;;;5260792;27;20108;-63
2021/05/28 08:14:32;;;;;;;2.45;1.83;;;50.80;27.10;;;;;;5260909;27;20141;-63
2021/05/28 08:16:59;;;;;;;5.43;2.10;;;50.00;26.90;;;;;;5261832;27;20497;-63
2021/05/28 08:19:25;;;;;;;2.95;2.00;;;48.70;26.90;;;;;;5260558;27;20549;-64
2021/05/28 08:21:52;;;;;;;4.55;2.37;;;48.00;27.30;;;;;;5261538;27;20512;-64
2021/05/28 08:24:18;;;;;;;3.45;2.03;;;47.70;27.60;;;;;;5261896;27;20103;-63
2021/05/28 08:26:47;;;;;;;2.10;1.90;;;44.20;28.10;;;;;;5260119;27;20143;-62
2021/05/28 08:29:15;;;;;;;5.70;2.50;;;39.60;29.60;;;;;;5259928;27;20107;-63
2021/05/28 08:31:41;;;;;;;5.20;2.78;;;35.40;32.80;;;;;;5260617;27;20143;-62
2021/05/28 08:34:08;;;;;;;4.05;2.50;;;30.60;34.80;;;;;;5260925;27;20157;-62
2021/05/28 08:36:35;;;;;;;4.10;2.33;;;28.80;40.40;;;;;;5260836;27;20108;-61
2021/05/28 08:39:01;;;;;;;4.68;3.10;;;27.60;40.80;;;;;;5260595;27;20416;-63
2021/05/28 08:41:29;;;;;;;4.18;3.12;;;26.40;42.20;;;;;;5260958;27;20114;-63
2021/05/28 08:43:59;;;;;;;4.73;2.87;;;25.30;44.40;;;;;;5260390;27;20141;-62
2021/05/28 08:46:26;;;;;;;4.00;2.42;;;24.50;46.30;;;;;;5260445;27;20127;-61
2021/05/28 08:49:02;;;;;;;7.97;2.93;;;24.00;48.50;;;;;;5260368;27;20145;-62
2021/05/28 08:51:29;;;;;;;8.00;3.40;;;23.60;52.70;;;;;;5260451;27;20103;-62
2021/05/28 08:53:55;;;;;;;5.83;3.17;;;23.30;56.20;;;;;;5260560;27;20107;-62
2021/05/28 08:56:21;;;;;;;5.07;2.50;;;23.00;58.50;;;;;;5262219;27;20111;-62
2021/05/28 08:58:48;;;;;;;10.27;2.97;;;22.50;59.10;;;;;;5260468;27;20107;-62
2021/05/28 09:01:14;;;;;;;5.03;2.70;;;22.10;62.00;;;;;;5259539;27;20428;-62
2021/05/28 09:03:43;;;;;;;4.17;2.50;;;21.90;64.20;;;;;;5260187;27;20133;-62
2021/05/28 09:06:19;;;;;;;8.90;2.60;;;21.30;67.90;;;;;;5262752;27;20122;-62
2021/05/28 09:09:14;;;;;;;5.67;2.80;;;20.60;71.60;;;;;;5260865;27;20111;-62
2021/05/28 09:11:57;;;;;;;4.87;2.70;;;19.90;75.70;;;;;;5261396;27;20561;-62
2021/05/28 09:14:32;;;;;;;4.50;2.57;;;19.50;81.40;;;;;;5261990;27;20133;-61
2021/05/28 09:16:59;;;;;;;5.40;3.13;;;19.10;82.60;;;;;;5261806;27;20127;-62
2021/05/28 09:19:27;;;;;;;7.23;2.83;;;18.90;84.50;;;;;;5261664;27;20130;-62
2021/05/28 09:22:00;;;;;;;4.30;3.20;;;18.50;86.90;;;;;;5261717;27;20535;-62
2021/05/28 09:24:30;;;;;;;7.77;3.27;;;18.10;88.40;;;;;;5258609;27;20118;-62
2021/05/28 09:26:58;;;;;;;5.37;3.30;;;18.00;89.50;;;;;;5261208;27;20159;-62
2021/05/28 09:29:30;;;;;;;6.37;3.57;;;18.00;90.70;;;;;;5258162;27;20455;-63
2021/05/28 09:31:58;;;;;;;7.83;4.37;;;18.10;90.80;;;;;;5261354;27;20156;-62
2021/05/28 09:34:28;;;;;;;5.47;4.40;;;18.20;90.70;;;;;;5261299;27;20179;-62
2021/05/28 09:37:10;;;;;;;5.67;4.00;;;18.40;90.80;;;;;;5238705;27;20185;-61
2021/05/28 09:39:37;;;;;;;8.30;4.60;;;18.90;91.60;;;;;;5263585;27;20107;-62
2021/05/28 09:42:04;;;;;;;9.70;4.67;;;19.40;90.10;;;;;;5261626;27;20152;-62
2021/05/28 09:44:32;;;;;;;8.30;4.73;;;20.00;88.30;;;;;;5261241;27;20151;-62
2021/05/28 09:47:04;;;;;;;6.30;4.33;;;20.60;87.80;;;;;;5261099;27;20127;-63
2021/05/28 09:49:32;;;;;;;8.70;4.50;;;20.90;86.70;;;;;;5262144;27;20135;-63
2021/05/28 09:52:11;;;;;;;10.43;5.10;;;21.10;86.70;;;;;;5261960;27;20541;-61
2021/05/28 09:54:39;;;;;;;9.23;4.60;;;21.30;85.90;;;;;;5261349;27;20107;-62
2021/05/28 09:57:10;;;;;;;6.13;4.17;;;21.40;83.90;;;;;;5261918;27;20115;-64
2021/05/28 09:59:46;;;;;;;6.33;4.50;;;21.50;83.40;;;;;;5261204;27;20172;-63
2021/05/28 10:02:29;;;;;;;6.53;4.20;;;21.60;82.00;;;;;;5261339;27;20121;-65
2021/05/28 10:04:57;;;;;;;7.30;4.37;;;21.50;82.60;;;;;;5261287;27;20515;-64
2021/05/28 10:07:25;;;;;;;7.33;3.90;;;21.60;81.20;;;;;;5261303;27;20119;-63
2021/05/28 10:09:53;;;;;;;4.97;3.70;;;21.50;80.70;;;;;;5263644;27;20112;-66
2021/05/28 10:12:20;;;;;;;7.07;4.77;;;21.70;80.00;;;;;;5261129;27;20150;-62
2021/05/28 10:14:49;;;;;;;7.30;4.50;;;21.50;79.90;;;;;;5262506;27;20115;-64
2021/05/28 10:17:16;;;;;;;7.23;4.63;;;21.40;80.80;;;;;;5262149;27;20457;-64
2021/05/28 10:19:46;;;;;;;7.63;4.00;;;21.30;81.10;;;;;;5262127;27;20126;-62
2021/05/28 10:22:13;;;;;;;7.27;4.90;;;20.90;84.40;;;;;;5262972;27;20116;-65
2021/05/28 10:24:42;;;;;;;7.43;5.10;;;20.90;84.80;;;;;;5261866;27;20137;-63
2021/05/28 10:27:10;;;;;;;5.40;4.20;;;20.90;84.40;;;;;;5262506;27;20123;-64
2021/05/28 10:29:39;;;;;;;8.67;4.47;;;21.10;86.00;;;;;;5263748;27;20111;-64
2021/05/28 10:32:11;;;;;;;5.20;3.80;;;21.20;83.50;;;;;;5263707;27;20108;-63
2021/05/28 10:35:05;;;;;;;6.93;4.60;;;21.50;83.30;;;;;;5260564;27;20107;-65
2021/05/28 10:37:35;;;;;;;4.77;3.83;;;21.40;80.80;;;;;;5261384;27;20104;-63
2021/05/28 10:40:04;;;;;;;7.73;4.20;;;20.70;80.90;;;;;;5261135;27;20107;-62
2021/05/28 10:42:58;;;;;;;6.67;5.03;;;20.20;84.50;;;;;;5260307;27;20154;-62
2021/05/28 10:45:56;;;;;;;5.90;4.83;;;19.80;87.80;;;;;;5261424;27;20107;-62
2021/05/28 10:48:55;;;;;;;5.60;4.00;;;19.40;88.30;;;;;;5260671;27;20166;-64
2021/05/28 10:52:01;;;;;;;5.33;3.80;;;19.60;90.10;;;;;;5260891;27;20126;-62
2021/05/28 10:54:33;;;;;;;7.67;4.10;;;19.90;87.30;;;;;;5260464;27;20430;-66
2021/05/28 10:57:29;;;;;;;5.20;3.47;;;20.20;86.40;;;;;;5261276;27;20535;-63
2021/05/28 10:59:59;;;;;;;3.37;3.07;;;20.30;84.50;;;;;;5261045;27;20138;-63
2021/05/28 11:02:52;;;;;;;5.40;3.07;;;20.50;81.50;;;;;;5261140;27;20157;-66
2021/05/28 11:05:41;;;;;;;4.07;2.40;;;20.70;82.10;;;;;;5172858;27;20128;-65
2021/05/28 11:08:34;;;;;;;4.40;2.90;;;20.80;75.20;;;;;;5174621;27;20545;-62
2021/05/28 11:11:01;;;;;;;4.73;2.60;;;20.80;75.20;;;;;;5173280;27;20140;-63
2021/05/28 11:13:30;;;;;;;5.13;2.40;;;20.90;75.20;;;;;;5172673;27;20117;-65
2021/05/28 11:16:08;;;;;;;2.53;2.00;;;20.90;72.40;;;;;;5170569;27;20147;-64
2021/05/28 11:18:46;;;;;;;3.47;2.90;;;21.00;73.10;;;;;;5172337;27;20159;-62
2021/05/28 11:21:16;;;;;;;4.13;2.87;;;21.10;78.60;;;;;;5172819;27;20163;-64
2021/05/28 11:23:45;;;;;;;4.10;3.03;;;21.10;76.40;;;;;;5170703;27;20139;-62
2021/05/28 11:26:18;;;;;;;4.27;3.07;;;21.10;78.40;;;;;;5171010;27;20136;-62
2021/05/28 11:28:58;;;;;;;3.37;3.07;;;21.20;77.70;;;;;;5173784;27;20202;-62
2021/05/28 11:31:29;;;;;;;6.77;3.30;;;21.30;76.00;;;;;;5175299;27;20611;-64
2021/05/28 11:33:58;;;;;;;5.23;2.93;;;21.40;76.40;;;;;;5173184;27;20116;-63
2021/05/28 11:36:50;;;;;;;3.80;3.10;;;21.50;75.20;;;;;;5172945;27;20540;-64
2021/05/28 11:39:35;;;;;;;4.23;2.73;;;21.60;76.30;;;;;;5172836;27;20457;-63
2021/05/28 11:42:03;;;;;;;4.80;3.00;;;21.60;75.00;;;;;;5214000;27;20162;-63
2021/05/28 11:44:34;;;;;;;5.30;2.63;;;21.60;75.50;;;;;;5239551;27;20107;-64
2021/05/28 11:47:03;;;;;;;4.40;2.80;;;21.70;70.90;;;;;;5239411;27;20161;-63
2021/05/28 11:49:30;;;;;;;3.40;2.30;;;21.70;73.80;;;;;;5239425;27;20117;-65
2021/05/28 11:52:04;;;;;;;2.90;2.50;;;21.60;72.70;;;;;;5239270;27;20108;-65
2021/05/28 11:54:33;;;;;;;3.33;2.90;;;21.80;73.00;;;;;;5239244;27;20138;-63
2021/05/28 11:57:04;;;;;;;3.57;2.43;;;21.90;71.60;;;;;;5239224;27;20126;-62
2021/05/28 11:59:54;;;;;;;4.13;2.57;;;22.00;72.10;;;;;;5239379;27;20158;-64
2021/05/28 12:02:38;;;;;;;3.63;2.50;;;22.10;71.30;;;;;;5239528;27;20147;-63
2021/05/28 12:05:19;;;;;;;3.47;2.63;;;22.10;71.50;;;;;;5238407;27;20130;-63
2021/05/28 12:07:46;;;;;;;4.13;2.20;;;22.00;69.90;;;;;;5238833;27;20425;-63
2021/05/28 12:10:16;;;;;;;2.80;2.00;;;22.30;70.90;;;;;;5238667;27;20140;-66
2021/05/28 12:13:15;;;;;;;4.70;2.80;;;22.50;69.40;;;;;;5238896;27;20107;-65
2021/05/28 12:15:43;;;;;;;4.67;2.47;;;21.90;66.30;;;;;;5173315;27;20168;-62
2021/05/28 12:18:22;;;;;;;2.67;2.47;;;22.10;69.30;;;;;;5173233;27;20128;-69
2021/05/28 12:20:52;;;;;;;2.97;2.00;;;22.50;66.90;;;;;;5185054;27;20138;-66
2021/05/28 12:23:25;;;;;;;2.93;1.90;;;22.60;67.30;;;;;;5218107;27;1760141;-63
2021/05/28 12:25:56;;;;;;;3.93;2.47;;;22.70;64.70;;;;;;5281826;27;20138;-64
2021/05/28 12:28:25;;;;;;;2.20;1.73;;;22.50;63.70;;;;;;5282314;27;20111;-63
2021/05/28 12:30:55;;;;;;;5.50;2.70;;;22.80;65.90;;;;;;5282680;27;20122;-64
2021/05/28 12:33:25;;;;;;;3.60;2.63;;;23.00;63.60;;;;;;5282306;27;20154;-66
2021/05/28 12:35:54;;;;;;;4.77;2.27;;;23.10;62.50;;;;;;5283358;27;20126;-65
2021/05/28 12:38:31;;;;;;;2.67;1.93;;;23.20;63.60;;;;;;5281946;27;20149;-63
2021/05/28 12:40:58;;;;;;;4.53;2.20;;;23.10;63.30;;;;;;5282508;27;20574;-63
2021/05/28 12:43:28;;;;;;;2.37;1.97;;;23.20;64.70;;;;;;5282042;27;20518;-65
2021/05/28 12:45:55;;;;;;;2.90;2.33;;;23.40;61.70;;;;;;5281920;27;20106;-66
2021/05/28 12:48:44;;;;;;;2.47;1.43;;;23.60;62.70;;;;;;5281830;27;20553;-65
2021/05/28 12:51:19;;;;;;;2.83;1.80;;;23.40;57.70;;;;;;5281417;27;20130;-64
2021/05/28 12:53:46;;;;;;;2.07;1.70;;;22.60;55.90;;;;;;5282112;27;20604;-64
2021/05/28 12:56:21;;;;;;;2.77;2.23;;;21.90;59.50;;;;;;5281927;27;20137;-63
2021/05/28 12:58:49;;;;;;;4.60;2.33;;;21.50;63.60;;;;;;5281988;27;20123;-66
2021/05/28 13:01:17;;;;;;;3.57;2.20;;;21.10;65.00;;;;;;5283755;27;20107;-66